Time;durP1;ratioP1;P1;durP2;ratioP2;P2;SDS_P1;SDS_P2;PMS_P1;PMS_P2;Temp;Humidity;BMP_temperature;BMP_pressure;BME280_temperature;BME280_humidity;BME280_pressure;Samples;Min_cycle;Max_cycle;Signal;HPM_P1;HPM_P2
2022/05/26 00:01:27;;;;;;;;;;;;;;;15.99;79.54;97114.55;110082;1250;59766;-66
2022/05/26 00:03:58;;;;;;;10.30;8.70;;;;;;;15.99;78.91;97127.55;109971;1251;59688;-69
2022/05/26 00:06:29;;;;;;;9.50;7.80;;;;;;;15.90;79.88;97153.92;109885;1251;71622;-68
2022/05/26 00:09:00;;;;;;;11.10;9.30;;;;;;;15.72;79.61;97172.27;109940;1250;68507;-67
2022/05/26 00:11:34;;;;;;;12.40;9.20;;;;;;;15.64;78.34;97185.67;110015;1251;69418;-69
2022/05/26 00:14:08;;;;;;;12.60;10.50;;;;;;;15.51;78.42;97199.13;110039;1250;59783;-68
2022/05/26 00:16:44;;;;;;;16.50;12.00;;;;;;;15.42;79.09;97233.98;109997;1251;59665;-67
2022/05/26 00:19:17;;;;;;;13.70;10.00;;;;;;;15.16;83.01;97299.04;110005;1250;70866;-68
2022/05/26 00:21:49;;;;;;;24.70;16.70;;;;;;;15.18;83.94;97333.23;109907;1251;67906;-70
2022/05/26 00:24:21;;;;;;;20.10;14.50;;;;;;;15.35;86.37;97361.20;109977;1251;69377;-68
2022/05/26 00:26:53;;;;;;;26.30;16.50;;;;;;;15.36;88.06;97383.56;109993;1251;59702;-68
2022/05/26 00:29:26;;;;;;;20.20;15.30;;;;;;;15.19;92.56;97391.97;110071;1250;59674;-67
2022/05/26 00:31:57;;;;;;;30.10;20.10;;;;;;;15.07;95.05;97409.94;110032;1250;71484;-66
2022/05/26 00:34:27;;;;;;;33.30;19.90;;;;;;;15.02;95.76;97413.20;109838;1250;67920;-67
2022/05/26 00:37:00;;;;;;;29.00;20.10;;;;;;;14.95;96.86;97410.99;109879;1251;69250;-67
2022/05/26 00:39:31;;;;;;;29.60;19.00;;;;;;;14.93;97.24;97419.09;109865;1251;59693;-66
2022/05/26 00:42:04;;;;;;;36.80;22.40;;;;;;;14.92;98.54;97422.73;110027;1251;59674;-68
2022/05/26 00:44:36;;;;;;;33.60;19.70;;;;;;;14.93;97.81;97419.27;110006;1250;70741;-67
2022/05/26 00:47:15;;;;;;;29.90;18.30;;;;;;;14.98;97.91;97417.65;109836;1251;67418;-68
2022/05/26 00:49:51;;;;;;;21.10;15.90;;;;;;;15.02;96.80;97415.34;109790;1250;69422;-66
2022/05/26 00:52:32;;;;;;;26.70;16.30;;;;;;;15.09;97.43;97410.16;109779;1251;59679;-70
2022/05/26 00:55:08;;;;;;;20.70;13.40;;;;;;;15.12;97.12;97401.73;110032;1251;59704;-72
2022/05/26 00:57:48;;;;;;;14.70;10.20;;;;;;;15.16;95.12;97395.41;109777;1251;70703;-69
2022/05/26 01:00:23;;;;;;;19.20;12.80;;;;;;;15.20;90.90;97384.71;109961;1250;67743;-69
2022/05/26 01:03:33;;;;;;;25.50;16.60;;;;;;;15.23;91.12;97377.16;109747;1251;69534;-68
2022/05/26 01:06:12;;;;;;;30.40;20.10;;;;;;;15.22;94.40;97377.11;109846;1251;59770;-68
2022/05/26 01:09:00;;;;;;;29.50;19.90;;;;;;;15.22;93.73;97368.02;109925;1251;59695;-68
2022/05/26 01:11:34;;;;;;;34.80;22.30;;;;;;;15.23;92.82;97358.23;109998;1249;71531;-65
2022/05/26 01:14:19;;;;;;;24.70;16.30;;;;;;;15.22;93.40;97360.80;109864;1250;67780;-68
2022/05/26 01:16:56;;;;;;;25.00;15.20;;;;;;;15.21;92.58;97362.84;109965;1251;69368;-66
2022/05/26 01:19:39;;;;;;;22.00;15.10;;;;;;;15.16;92.29;97356.25;110027;1251;59751;-67
2022/05/26 01:22:10;;;;;;;20.70;13.30;;;;;;;15.13;92.43;97372.88;109991;1251;59698;-67
2022/05/26 01:25:16;;;;;;;19.20;12.30;;;;;;;15.10;92.27;97384.58;109991;1250;71556;-68
2022/05/26 01:28:30;;;;;;;11.80;8.50;;;;;;;15.06;92.30;97399.69;109991;1251;68500;-71
2022/05/26 01:31:24;;;;;;;10.10;6.60;;;;;;;14.99;93.41;97408.73;109803;1251;68626;-69
2022/05/26 01:34:13;;;;;;;14.70;9.10;;;;;;;14.98;94.36;97408.11;110130;1250;59764;-66
2022/05/26 01:37:06;;;;;;;11.50;7.40;;;;;;;15.00;94.05;97405.70;110142;1249;59672;-66
2022/05/26 01:39:42;;;;;;;8.20;6.10;;;;;;;15.00;94.34;97402.13;110135;1250;71442;-70
2022/05/26 01:42:38;;;;;;;9.00;5.90;;;;;;;15.02;93.27;97392.48;110147;1250;68525;-65
2022/05/26 01:45:39;;;;;;;9.80;6.50;;;;;;;15.03;92.36;97387.12;110106;1249;68673;-67
2022/05/26 01:48:29;;;;;;;9.10;6.80;;;;;;;15.04;92.56;97380.58;109819;1249;59751;-67
2022/05/26 01:51:11;;;;;;;7.80;5.80;;;;;;;15.05;91.69;97371.55;110135;1249;59694;-71
2022/05/26 01:54:06;;;;;;;7.60;5.50;;;;;;;15.05;91.60;97374.89;110130;1250;70613;-68
2022/05/26 01:56:50;;;;;;;7.10;4.90;;;;;;;15.08;92.29;97382.98;110100;1249;67618;-66
2022/05/26 01:59:32;;;;;;;7.50;5.00;;;;;;;15.12;92.82;97392.27;110128;1249;68628;-67
2022/05/26 02:02:15;;;;;;;7.20;4.90;;;;;;;15.16;92.47;97393.66;110143;1249;60035;-67
2022/05/26 02:04:53;;;;;;;7.80;5.70;;;;;;;15.20;92.67;97384.89;110208;1250;60063;-67
2022/05/26 02:07:35;;;;;;;9.60;5.70;;;;;;;15.20;92.64;97383.45;110033;1251;71535;-68
2022/05/26 02:10:15;;;;;;;6.00;4.70;;;;;;;15.20;93.58;97390.10;110144;1250;68445;-67
2022/05/26 02:12:56;;;;;;;8.20;5.70;;;;;;;15.21;94.53;97388.32;110123;1250;68612;-67
2022/05/26 02:15:46;;;;;;;8.20;5.20;;;;;;;15.22;93.26;97384.70;110128;1248;59712;-68
2022/05/26 02:18:20;;;;;;;6.60;5.10;;;;;;;15.24;94.44;97383.45;110152;1250;59698;-66
2022/05/26 02:21:20;;;;;;;6.90;4.80;;;;;;;15.25;95.27;97374.23;110189;1250;69687;-69
2022/05/26 02:24:05;;;;;;;7.90;6.10;;;;;;;15.26;94.77;97377.83;109968;1250;68826;-66
2022/05/26 02:26:37;;;;;;;7.40;6.10;;;;;;;15.28;94.96;97372.65;110168;1249;69360;-69
2022/05/26 02:31:57;;;;;;;11.70;8.60;;;;;;;15.30;93.74;97360.60;110009;1248;59684;-65
2022/05/26 02:34:29;;;;;;;11.30;8.30;;;;;;;15.26;94.79;97350.25;109744;1250;71354;-67
2022/05/26 02:37:00;;;;;;;11.70;8.60;;;;;;;15.31;93.06;97348.95;109990;1251;67456;-66
2022/05/26 02:39:30;;;;;;;9.20;6.40;;;;;;;15.31;92.66;97347.38;109948;1251;69492;-67
2022/05/26 02:42:03;;;;;;;9.20;7.50;;;;;;;15.31;93.54;97347.40;109997;1251;59685;-73
2022/05/26 02:44:35;;;;;;;8.40;7.10;;;;;;;15.28;94.05;97343.88;109998;1251;59759;-67
2022/05/26 02:47:20;;;;;;;8.20;6.00;;;;;;;15.25;93.87;97340.02;109864;1251;71537;-67
2022/05/26 02:50:08;;;;;;;7.30;6.20;;;;;;;15.22;93.32;97347.98;109818;1251;68546;-71
2022/05/26 02:53:13;;;;;;;7.40;6.10;;;;;;;15.15;93.89;97362.67;109999;1250;68647;-66
2022/05/26 02:56:16;;;;;;;7.60;6.40;;;;;;;15.10;94.04;97369.27;109874;1251;59744;-66
2022/05/26 02:59:03;;;;;;;7.50;6.50;;;;;;;15.06;94.95;97378.66;109892;1251;59701;-69
2022/05/26 03:01:41;;;;;;;10.20;6.90;;;;;;;15.03;94.86;97378.39;109935;1251;70656;-71
2022/05/26 03:04:23;;;;;;;8.80;6.80;;;;;;;15.03;94.64;97378.19;109964;1250;68791;-71
2022/05/26 03:07:05;;;;;;;10.00;7.20;;;;;;;15.03;93.97;97376.97;109846;1251;69470;-72
2022/05/26 03:09:38;;;;;;;6.90;5.40;;;;;;;15.01;93.23;97380.45;109906;1251;59706;-66
2022/05/26 03:12:30;;;;;;;7.10;5.00;;;;;;;15.01;92.87;97374.98;109822;1251;59732;-71
2022/05/26 03:15:03;;;;;;;6.40;5.10;;;;;;;15.03;92.19;97374.70;109854;1251;70748;-74
2022/05/26 03:17:35;;;;;;;7.00;5.40;;;;;;;15.04;92.04;97381.60;109927;1251;68457;-66
2022/05/26 03:20:06;;;;;;;7.30;4.80;;;;;;;15.06;91.64;97382.83;109873;1250;68763;-67
2022/05/26 03:22:39;;;;;;;5.70;4.10;;;;;;;15.08;91.20;97380.07;109963;1250;59758;-68
2022/05/26 03:25:11;;;;;;;6.60;4.20;;;;;;;15.09;91.19;97382.20;109752;1251;59688;-66
2022/05/26 03:27:40;;;;;;;6.10;5.00;;;;;;;15.11;91.08;97386.39;109916;1251;71702;-69
2022/05/26 03:30:10;;;;;;;4.90;4.00;;;;;;;15.12;90.92;97390.19;109901;1251;68658;-68
2022/05/26 03:32:41;;;;;;;7.00;5.70;;;;;;;15.12;90.27;97390.53;109844;1250;68292;-65
2022/05/26 03:40:55;;;;;;;6.40;4.80;;;;;;;15.15;94.51;97400.56;110178;1250;70741;-67
2022/05/26 03:43:38;;;;;;;6.70;5.10;;;;;;;15.18;95.20;97404.56;109958;1248;68593;-66
2022/05/26 03:46:12;;;;;;;5.10;3.70;;;;;;;15.21;93.56;97406.16;109787;1250;69223;-74
2022/05/26 03:48:50;;;;;;;5.50;4.10;;;;;;;15.24;92.98;97411.83;109891;1250;59754;-71
2022/05/26 03:51:21;;;;;;;4.80;3.80;;;;;;;15.28;94.14;97420.11;110188;1250;59766;-71
2022/05/26 03:53:50;;;;;;;;;;;;;;;15.32;94.39;97425.60;110144;1249;70715;-70
2022/05/26 03:56:21;;;;;;;6.00;4.40;;;;;;;15.34;93.64;97422.54;110224;1250;68587;-68
2022/05/26 03:58:52;;;;;;;5.80;4.10;;;;;;;15.37;94.22;97425.16;109989;1250;69434;-68
2022/05/26 04:01:22;;;;;;;;;;;;;;;15.40;93.98;97416.95;109783;1251;59763;-68
2022/05/26 04:03:52;;;;;;;4.10;3.40;;;;;;;15.42;92.48;97413.44;110166;1249;59690;-67
2022/05/26 04:06:25;;;;;;;5.20;4.00;;;;;;;15.45;92.47;97423.70;110202;1249;70575;-73
2022/05/26 04:08:58;;;;;;;5.70;4.00;;;;;;;15.47;93.18;97432.06;109929;1250;68026;-67
2022/05/26 04:11:27;;;;;;;4.80;3.80;;;;;;;15.50;93.56;97434.05;110138;1249;68458;-66
2022/05/26 04:13:59;;;;;;;5.20;3.80;;;;;;;15.55;93.03;97433.98;109876;1250;59915;-65
2022/05/26 04:16:30;;;;;;;5.40;4.40;;;;;;;15.60;93.34;97435.26;109991;1250;59705;-67
2022/05/26 04:19:02;;;;;;;4.90;3.70;;;;;;;15.65;92.89;97434.63;110232;1249;71527;-66
2022/05/26 04:21:32;;;;;;;5.60;3.80;;;;;;;15.69;92.06;97437.10;109857;1250;68533;-70
2022/05/26 04:24:01;;;;;;;5.00;3.70;;;;;;;15.75;92.24;97435.11;110096;1250;69231;-70
2022/05/26 04:26:33;;;;;;;6.70;5.00;;;;;;;15.81;91.03;97440.01;110181;1250;60206;-69
2022/05/26 04:29:13;;;;;;;6.50;5.00;;;;;;;15.84;90.85;97449.42;109858;1250;59689;-67
2022/05/26 04:31:43;;;;;;;7.10;5.00;;;;;;;15.85;90.06;97452.70;109931;1250;71549;-68
2022/05/26 04:34:13;;;;;;;7.90;4.50;;;;;;;15.82;90.70;97457.67;110051;1250;68467;-67
2022/05/26 04:36:43;;;;;;;5.90;4.50;;;;;;;15.84;90.45;97457.89;109832;1251;68786;-67
2022/05/26 04:39:16;;;;;;;7.00;5.50;;;;;;;15.88;90.30;97453.58;109701;1250;59672;-66
2022/05/26 04:41:47;;;;;;;5.60;4.30;;;;;;;15.92;89.41;97456.86;109820;1251;59727;-66
2022/05/26 04:44:18;;;;;;;6.00;4.50;;;;;;;15.95;89.07;97456.81;109877;1250;70725;-64
2022/05/26 04:46:48;;;;;;;6.00;4.70;;;;;;;15.96;88.27;97463.35;109872;1251;68422;-66
2022/05/26 04:49:17;;;;;;;6.90;3.80;;;;;;;15.97;88.68;97459.96;109997;1250;68915;-69
2022/05/26 04:51:54;;;;;;;6.20;4.10;;;;;;;15.96;87.37;97460.77;109898;1250;59790;-70
2022/05/26 04:54:23;;;;;;;5.00;3.70;;;;;;;15.94;87.73;97462.91;110000;1250;59688;-67
2022/05/26 04:56:58;;;;;;;4.80;3.90;;;;;;;15.94;88.30;97462.19;109836;1250;70848;-67
2022/05/26 04:59:27;;;;;;;6.80;4.10;;;;;;;16.01;89.41;97460.84;109892;1250;68568;-70
2022/05/26 05:01:57;;;;;;;4.80;3.80;;;;;;;16.09;88.10;97458.30;109806;1250;68621;-68
2022/05/26 05:04:28;;;;;;;4.00;3.10;;;;;;;16.16;87.43;97460.25;109904;1250;59688;-63
2022/05/26 05:06:59;;;;;;;4.80;3.60;;;;;;;16.25;87.29;97460.94;109775;1251;59673;-67
2022/05/26 05:09:29;;;;;;;3.80;3.40;;;;;;;16.29;85.81;97461.86;109885;1250;69593;-69
2022/05/26 05:11:58;;;;;;;4.50;3.30;;;;;;;16.38;85.97;97458.83;110066;1249;67773;-66
2022/05/26 05:14:30;;;;;;;5.00;3.80;;;;;;;16.47;85.44;97460.65;109842;1249;68852;-74
2022/05/26 05:16:59;;;;;;;5.70;3.80;;;;;;;16.45;85.00;97464.71;109852;1250;59696;-68
2022/05/26 05:19:28;;;;;;;4.80;3.80;;;;;;;16.35;85.75;97468.89;109890;1250;59720;-70
2022/05/26 05:22:05;;;;;;;4.60;3.70;;;;;;;16.42;86.21;97468.64;109830;1250;71593;-72
2022/05/26 05:24:43;;;;;;;6.70;4.40;;;;;;;16.51;85.98;97469.44;109810;1250;68714;-70
2022/05/26 05:27:29;;;;;;;6.50;4.90;;;;;;;16.51;85.52;97465.89;109939;1249;68723;-69
2022/05/26 05:30:06;;;;;;;9.10;6.90;;;;;;;16.42;85.15;97464.63;109932;1250;59706;-71
2022/05/26 05:32:56;;;;;;;10.00;7.90;;;;;;;16.28;85.92;97469.07;109969;1249;59644;-67
2022/05/26 05:35:32;;;;;;;14.10;11.30;;;;;;;16.37;86.29;97472.21;109834;1249;71339;-68
2022/05/26 05:38:02;;;;;;;15.20;13.10;;;;;;;16.48;85.72;97471.23;109959;1250;68667;-73
2022/05/26 05:40:31;;;;;;;;;;;;;;;16.68;85.49;97472.31;110158;1249;69397;-67
2022/05/26 05:43:04;;;;;;;16.70;13.00;;;;;;;16.85;84.58;97470.02;110018;1250;59756;-68
2022/05/26 05:45:34;;;;;;;13.60;10.00;;;;;;;17.01;84.74;97471.30;110117;1250;59688;-70
2022/05/26 05:48:04;;;;;;;17.20;13.00;;;;;;;17.10;84.37;97475.19;109842;1250;70828;-68
2022/05/26 05:50:33;;;;;;;12.30;8.90;;;;;;;17.13;83.77;97479.08;109871;1250;67262;-69
2022/05/26 05:53:04;;;;;;;10.50;7.70;;;;;;;17.14;84.18;97484.26;109702;1250;69772;-70
2022/05/26 05:55:34;;;;;;;13.90;12.00;;;;;;;17.33;84.14;97485.52;109945;1250;59774;-67
2022/05/26 05:58:07;;;;;;;11.70;8.40;;;;;;;17.53;83.75;97490.45;110112;1249;59770;-66
2022/05/26 06:00:41;;;;;;;11.60;8.70;;;;;;;17.75;83.39;97494.73;109926;1251;70960;-66
2022/05/26 06:03:12;;;;;;;16.20;12.90;;;;;;;18.06;82.56;97497.09;109923;1250;68707;-68
2022/05/26 06:05:43;;;;;;;14.90;12.70;;;;;;;18.20;81.06;97496.85;109825;1250;70474;-67
2022/05/26 06:08:14;;;;;;;16.50;14.80;;;;;;;18.23;80.52;97495.66;109997;1249;59755;-68
2022/05/26 06:10:44;;;;;;;15.80;14.10;;;;;;;18.32;80.21;97495.78;109728;1250;59679;-69
2022/05/26 06:13:16;;;;;;;13.30;10.20;;;;;;;18.29;80.42;97503.36;109952;1250;71719;-67
2022/05/26 06:15:56;;;;;;;10.40;8.40;;;;;;;18.51;79.58;97506.19;109541;1251;67888;-68
2022/05/26 06:18:25;;;;;;;;;;;;;;;18.65;79.05;97508.06;110045;1250;69421;-70
2022/05/26 06:21:05;;;;;;;17.60;12.10;;;;;;;18.70;78.95;97510.05;110231;1249;60456;-68
2022/05/26 06:23:34;;;;;;;;;;;;;;;18.56;78.14;97513.48;109985;1250;59722;-67
2022/05/26 06:26:03;;;;;;;21.10;17.40;;;;;;;18.38;78.34;97520.06;110058;1249;70561;-66
2022/05/26 06:31:22;;;;;;;21.60;19.40;;;;;;;17.86;80.90;97517.16;109843;1249;69686;-67
2022/05/26 06:37:13;;;;;;;17.00;13.90;;;;;;;17.79;81.12;97516.05;109823;1250;59726;-67
2022/05/26 06:39:29;;;;;;;19.10;14.70;;;;;;;17.82;81.10;97518.52;110126;1249;71591;-69
2022/05/26 06:42:07;;;;;;;17.30;13.60;;;;;;;17.87;81.40;97519.52;109876;1250;66704;-68
2022/05/26 06:44:43;;;;;;;17.30;13.90;;;;;;;17.87;81.80;97518.22;109641;1251;69525;-66
2022/05/26 06:47:16;;;;;;;16.10;12.70;;;;;;;18.00;81.55;97520.77;110171;1250;59692;-66
2022/05/26 06:49:45;;;;;;;14.60;12.40;;;;;;;18.13;81.18;97522.70;109833;1249;59675;-68
2022/05/26 06:52:17;;;;;;;14.70;12.10;;;;;;;18.41;80.67;97524.08;110225;1249;71570;-67
2022/05/26 06:54:47;;;;;;;13.50;10.80;;;;;;;18.67;79.96;97524.04;110160;1249;69313;-66
2022/05/26 06:57:16;;;;;;;14.10;11.20;;;;;;;18.87;79.58;97527.52;110091;1250;68454;-66
2022/05/26 06:59:45;;;;;;;;;;;;;;;19.15;78.49;97523.77;110194;1249;60101;-66
2022/05/26 07:02:16;;;;;;;13.30;9.70;;;;;;;19.31;77.31;97524.59;110061;1249;59694;-69
2022/05/26 07:04:45;;;;;;;11.50;8.90;;;;;;;19.38;76.44;97523.38;109765;1250;71088;-65
2022/05/26 07:07:16;;;;;;;13.70;9.90;;;;;;;19.58;76.60;97523.92;110151;1250;68728;-66
2022/05/26 07:09:45;;;;;;;11.10;9.00;;;;;;;19.76;76.78;97522.42;109883;1249;69234;-68
2022/05/26 07:12:14;;;;;;;;;;;;;;;19.88;75.12;97525.64;109928;1250;59723;-70
2022/05/26 07:14:44;;;;;;;9.30;7.50;;;;;;;19.95;73.37;97531.79;110094;1249;59726;-69
2022/05/26 07:17:13;;;;;;;12.30;9.30;;;;;;;20.11;72.63;97535.98;110012;1250;72255;-66
2022/05/26 07:19:42;;;;;;;12.10;9.50;;;;;;;20.10;70.24;97538.54;109657;1250;67861;-68
2022/05/26 07:22:11;;;;;;;12.20;9.30;;;;;;;20.28;69.91;97542.91;110003;1250;69414;-69
2022/05/26 07:24:42;;;;;;;8.40;7.50;;;;;;;20.34;69.32;97543.04;109784;1250;59701;-66
2022/05/26 07:27:10;;;;;;;9.90;8.90;;;;;;;20.63;68.61;97543.88;109964;1250;59713;-69
2022/05/26 07:29:39;;;;;;;10.20;8.80;;;;;;;20.81;67.92;97539.23;109993;1249;72196;-65
2022/05/26 07:32:08;;;;;;;9.10;8.20;;;;;;;20.56;67.77;97546.12;109965;1250;67847;-68
2022/05/26 07:34:37;;;;;;;9.00;7.90;;;;;;;20.27;68.31;97543.04;110086;1249;69416;-68
2022/05/26 07:42:41;;;;;;;9.10;8.00;;;;;;;20.11;68.68;97559.38;110048;1249;71571;-69
2022/05/26 07:45:12;;;;;;;9.20;7.30;;;;;;;20.28;66.82;97562.26;110051;1249;68585;-68
2022/05/26 07:47:42;;;;;;;8.40;7.50;;;;;;;20.18;66.89;97564.60;110096;1250;68681;-67
2022/05/26 07:50:19;;;;;;;9.80;8.90;;;;;;;20.43;66.70;97566.59;109950;1250;59710;-71
2022/05/26 07:52:50;;;;;;;11.20;8.90;;;;;;;21.08;66.09;97573.70;110091;1250;59745;-68
2022/05/26 07:55:19;;;;;;;8.70;7.80;;;;;;;21.42;64.16;97579.89;110146;1248;71566;-66
2022/05/26 07:57:56;;;;;;;7.70;6.50;;;;;;;21.71;62.54;97581.67;110093;1249;67771;-72
2022/05/26 08:00:25;;;;;;;8.50;6.80;;;;;;;22.13;62.57;97586.59;110038;1250;67748;-70
2022/05/26 08:02:55;;;;;;;7.30;6.50;;;;;;;22.49;58.33;97580.06;109809;1250;60110;-67
2022/05/26 08:05:24;;;;;;;7.60;5.90;;;;;;;22.90;58.46;97589.22;109855;1250;59694;-66
2022/05/26 08:07:53;;;;;;;6.90;6.20;;;;;;;23.15;57.17;97591.18;109910;1250;70881;-66
2022/05/26 08:10:22;;;;;;;;;;;;;;;23.13;55.07;97591.54;109988;1250;68687;-67
2022/05/26 08:12:51;;;;;;;6.00;5.30;;;;;;;23.35;55.61;97598.85;109840;1250;70189;-67
2022/05/26 08:15:25;;;;;;;6.00;4.80;;;;;;;23.38;53.88;97600.20;109769;1250;60206;-69
2022/05/26 08:17:54;;;;;;;5.80;5.00;;;;;;;23.68;52.53;97604.51;109969;1250;59650;-72
2022/05/26 08:20:23;;;;;;;5.40;4.90;;;;;;;23.14;51.96;97603.80;109890;1250;70759;-66
2022/05/26 08:22:52;;;;;;;5.20;4.70;;;;;;;23.24;53.19;97608.73;109930;1250;68718;-64
2022/05/26 08:25:21;;;;;;;5.00;4.50;;;;;;;23.20;52.96;97609.69;109961;1250;69216;-67
2022/05/26 08:27:50;;;;;;;;;;;;;;;22.84;53.54;97607.63;109904;1250;59753;-66
2022/05/26 08:30:19;;;;;;;4.80;4.30;;;;;;;23.44;53.16;97613.72;109995;1250;59634;-69
2022/05/26 08:32:53;;;;;;;5.70;5.00;;;;;;;23.74;53.42;97613.22;110057;1250;70629;-66
2022/05/26 08:35:22;;;;;;;4.60;4.20;;;;;;;23.94;52.32;97620.77;109824;1250;68010;-69
2022/05/26 08:37:52;;;;;;;5.30;4.80;;;;;;;24.11;51.82;97620.92;110118;1247;68907;-68
2022/05/26 08:40:40;;;;;;;4.30;3.70;;;;;;;24.27;51.76;97618.89;110119;1248;60060;-68
2022/05/26 08:43:20;;;;;;;5.10;4.40;;;;;;;24.95;50.95;97616.53;109868;1250;59649;-71
2022/05/26 08:45:52;;;;;;;4.80;4.10;;;;;;;25.05;48.73;97618.77;110128;1249;70587;-69
2022/05/26 08:48:45;;;;;;;4.40;4.00;;;;;;;25.10;48.22;97621.67;110152;1250;69051;-66
2022/05/26 08:51:28;;;;;;;4.10;3.70;;;;;;;25.22;47.91;97625.45;110178;1247;70120;-67
2022/05/26 08:53:59;;;;;;;4.70;3.40;;;;;;;25.21;47.41;97624.55;110136;1249;59601;-67
2022/05/26 08:56:32;;;;;;;4.40;3.60;;;;;;;25.23;48.49;97634.27;110119;1250;59761;-69
2022/05/26 08:59:10;;;;;;;5.10;3.50;;;;;;;25.03;46.04;97632.42;110215;1250;71566;-67
2022/05/26 09:01:39;;;;;;;3.70;3.20;;;;;;;25.19;46.36;97637.94;109969;1250;68237;-68
2022/05/26 09:04:10;;;;;;;3.60;3.00;;;;;;;25.48;44.73;97635.88;109985;1249;68732;-67
2022/05/26 09:15:20;;;;;;;3.90;2.20;;;;;;;25.46;43.06;97637.55;109963;1250;68832;-67
2022/05/26 09:17:49;;;;;;;;;;;;;;;25.75;41.58;97635.66;110015;1250;68721;-68
2022/05/26 09:20:36;;;;;;;4.40;2.20;;;;;;;25.93;42.06;97640.33;109966;1248;59759;-68
2022/05/26 09:23:22;;;;;;;3.90;2.50;;;;;;;25.75;41.26;97637.79;109825;1251;59727;-70
2022/05/26 09:26:05;;;;;;;2.20;1.70;;;;;;;25.62;42.51;97637.34;109723;1250;72135;-67
2022/05/26 09:28:37;;;;;;;2.50;1.50;;;;;;;26.10;40.92;97637.34;110122;1250;69275;-67
2022/05/26 09:31:19;;;;;;;3.20;1.50;;;;;;;26.11;39.62;97640.99;109984;1250;68554;-67
2022/05/26 09:34:09;;;;;;;1.80;1.40;;;;;;;26.54;39.14;97642.64;109923;1250;59813;-68
2022/05/26 09:37:00;;;;;;;2.00;1.80;;;;;;;26.81;38.72;97635.48;109995;1250;59689;-67
2022/05/26 09:39:42;;;;;;;2.90;1.40;;;;;;;26.99;38.06;97636.44;110011;1250;71518;-66
2022/05/26 09:42:17;;;;;;;1.20;1.00;;;;;;;27.49;37.30;97642.89;109906;1250;67927;-67
2022/05/26 09:45:13;;;;;;;1.50;1.10;;;;;;;27.64;35.82;97652.08;109960;1249;69489;-67
2022/05/26 09:47:57;;;;;;;2.30;1.10;;;;;;;27.65;35.83;97650.75;109920;1250;59688;-69
2022/05/26 09:50:37;;;;;;;1.80;1.20;;;;;;;28.07;34.83;97651.73;109932;1250;60067;-71
2022/05/26 09:53:10;;;;;;;1.20;0.90;;;;;;;28.22;34.50;97652.06;109932;1250;71569;-68
2022/05/26 09:55:54;;;;;;;2.60;1.10;;;;;;;27.49;34.54;97651.01;109932;1250;67917;-69
2022/05/26 09:58:34;;;;;;;1.60;1.30;;;;;;;26.12;36.70;97640.60;109795;1250;68778;-68
2022/05/26 10:01:28;;;;;;;2.20;1.30;;;;;;;26.75;37.88;97650.50;109966;1250;59800;-67
2022/05/26 10:04:20;;;;;;;1.40;1.20;;;;;;;27.17;36.71;97644.87;109839;1249;59689;-67
2022/05/26 10:07:01;;;;;;;2.20;1.40;;;;;;;27.53;36.38;97651.10;109971;1250;71611;-66
2022/05/26 10:09:42;;;;;;;1.70;1.30;;;;;;;27.47;36.28;97647.52;109891;1250;67795;-71
2022/05/26 10:12:30;;;;;;;1.70;1.30;;;;;;;26.72;35.67;97647.49;109901;1250;69451;-68
2022/05/26 10:15:22;;;;;;;2.50;1.10;;;;;;;26.27;35.75;97654.00;109964;1249;59682;-70
2022/05/26 10:17:57;;;;;;;1.80;1.30;;;;;;;26.17;34.40;97649.98;109933;1250;59769;-67
2022/05/26 10:20:35;;;;;;;1.30;1.10;;;;;;;26.13;34.00;97648.71;109879;1250;70584;-67
2022/05/26 10:23:51;;;;;;;1.30;1.00;;;;;;;26.28;35.17;97659.57;109988;1249;67451;-67
2022/05/26 10:26:20;;;;;;;1.30;1.00;;;;;;;26.05;33.44;97649.08;109633;1250;69515;-68
2022/05/26 10:29:06;;;;;;;1.10;1.00;;;;;;;26.29;34.43;97657.05;109974;1250;59766;-67
2022/05/26 10:31:54;;;;;;;1.70;1.00;;;;;;;26.49;34.00;97654.64;109964;1250;59622;-67
2022/05/26 10:34:54;;;;;;;3.20;1.00;;;;;;;26.62;33.72;97655.14;110088;1250;70891;-67
2022/05/26 10:37:28;;;;;;;3.40;0.90;;;;;;;26.45;33.02;97654.82;109853;1250;67178;-68
2022/05/26 10:40:16;;;;;;;0.90;0.70;;;;;;;26.16;33.09;97661.10;109958;1250;68739;-68
2022/05/26 10:43:05;;;;;;;1.00;0.70;;;;;;;25.70;33.30;97660.13;109770;1249;59703;-68
2022/05/26 10:45:38;;;;;;;0.80;0.70;;;;;;;25.19;35.07;97660.20;110109;1248;59811;-69
2022/05/26 10:48:22;;;;;;;1.20;0.80;;;;;;;25.58;36.46;97662.80;109983;1250;70993;-67
2022/05/26 10:51:05;;;;;;;1.40;0.80;;;;;;;25.85;35.04;97664.86;110163;1248;67716;-66
2022/05/26 10:54:05;;;;;;;2.10;0.90;;;;;;;26.17;35.67;97667.63;110123;1250;69497;-71
2022/05/26 10:56:46;;;;;;;1.00;0.80;;;;;;;26.43;35.31;97665.52;110167;1249;59757;-72
2022/05/26 10:59:38;;;;;;;1.10;1.00;;;;;;;26.70;35.35;97668.77;110121;1249;60071;-72
2022/05/26 11:02:11;;;;;;;1.30;0.70;;;;;;;26.79;33.09;97665.23;110095;1249;70854;-65
2022/05/26 11:04:59;;;;;;;1.20;0.60;;;;;;;26.89;32.86;97669.96;110131;1248;68615;-65
2022/05/26 11:07:48;;;;;;;1.30;0.80;;;;;;;26.99;31.03;97665.20;109966;1250;69408;-67
2022/05/26 11:10:42;;;;;;;2.20;0.80;;;;;;;26.95;31.69;97667.30;110070;1249;59713;-66
2022/05/26 11:13:48;;;;;;;0.90;0.80;;;;;;;26.94;31.69;97666.32;110113;1249;59679;-67
2022/05/26 11:19:44;;;;;;;0.90;0.70;;;;;;;27.03;31.79;97668.24;109958;1250;68525;-69
2022/05/26 11:22:14;;;;;;;2.50;1.40;;;;;;;27.04;29.81;97666.85;109797;1250;69389;-68
2022/05/26 11:24:48;;;;;;;1.70;0.80;;;;;;;26.37;30.64;97676.52;110119;1250;59825;-69
2022/05/26 11:27:27;;;;;;;3.50;3.20;;;;;;;25.79;31.84;97674.42;110002;1250;59676;-67
2022/05/26 11:30:01;;;;;;;0.60;0.60;;;;;;;26.23;31.43;97682.89;109879;1248;70754;-69
2022/05/26 11:38:43;;;;;;;0.90;0.50;;;;;;;27.28;31.04;97671.61;110072;1247;59821;-67
2022/05/26 11:41:24;;;;;;;0.70;0.70;;;;;;;27.22;30.19;97667.77;109957;1250;59637;-66
2022/05/26 11:44:12;;;;;;;1.50;0.60;;;;;;;27.15;30.06;97670.98;110091;1250;71566;-69
2022/05/26 11:46:41;;;;;;;0.70;0.70;;;;;;;27.07;29.96;97679.30;109915;1250;68626;-67
2022/05/26 11:49:11;;;;;;;;;;;;;;;27.08;30.29;97667.70;110149;1248;69564;-67
2022/05/26 11:51:41;;;;;;;1.10;0.70;;;;;;;26.99;30.48;97671.05;110027;1249;59694;-71
2022/05/26 11:55:02;;;;;;;1.50;0.70;;;;;;;26.83;29.99;97672.30;110084;1250;59673;-68
2022/05/26 11:57:35;;;;;;;1.30;0.60;;;;;;;26.77;30.26;97667.25;110021;1249;71908;-66
2022/05/26 12:00:16;;;;;;;0.80;0.60;;;;;;;26.49;29.01;97674.27;110108;1249;68609;-71
2022/05/26 12:03:14;;;;;;;1.50;0.60;;;;;;;26.57;29.18;97673.61;110122;1249;68641;-70
2022/05/26 12:05:45;;;;;;;1.40;0.60;;;;;;;26.75;29.49;97678.55;109874;1250;59705;-68
2022/05/26 12:08:38;;;;;;;2.70;0.70;;;;;;;26.90;29.48;97678.21;110108;1250;59668;-66
2022/05/26 12:11:10;;;;;;;2.80;0.90;;;;;;;26.32;29.25;97679.11;110113;1250;71561;-67
2022/05/26 12:13:40;;;;;;;0.90;0.70;;;;;;;26.45;30.50;97679.88;109850;1250;68734;-68
2022/05/26 12:16:15;;;;;;;2.00;1.20;;;;;;;26.66;28.64;97665.90;110039;1250;68792;-67
2022/05/26 12:18:52;;;;;;;2.70;0.80;;;;;;;26.68;28.47;97662.06;110068;1250;59762;-67
2022/05/26 12:21:30;;;;;;;1.10;0.70;;;;;;;26.77;29.80;97667.83;110175;1249;59685;-69
2022/05/26 12:24:32;;;;;;;1.60;1.10;;;;;;;26.72;29.59;97669.56;110102;1248;71707;-67
2022/05/26 12:27:02;;;;;;;1.80;0.70;;;;;;;26.85;29.53;97669.17;110109;1249;68780;-68
2022/05/26 12:29:46;;;;;;;1.70;0.80;;;;;;;26.86;29.47;97666.73;109968;1250;69436;-68
2022/05/26 12:32:22;;;;;;;2.10;0.90;;;;;;;27.05;29.94;97662.50;110031;1249;59755;-66
2022/05/26 12:34:57;;;;;;;2.10;0.80;;;;;;;27.16;28.78;97665.34;110016;1249;59725;-71
2022/05/26 12:37:47;;;;;;;1.40;0.80;;;;;;;27.08;28.26;97661.05;110143;1250;71563;-68
2022/05/26 12:40:46;;;;;;;1.00;0.50;;;;;;;26.75;25.23;97667.38;110121;1249;68662;-69
2022/05/26 12:43:51;;;;;;;1.10;0.80;;;;;;;26.55;25.38;97661.16;110129;1250;69533;-69
2022/05/26 12:46:39;;;;;;;1.00;0.70;;;;;;;26.33;25.01;97659.11;110056;1250;59763;-67
2022/05/26 12:49:30;;;;;;;1.90;0.70;;;;;;;26.35;25.97;97656.40;110131;1248;59671;-68